Time;durP1;ratioP1;P1;durP2;ratioP2;P2;SDS_P1;SDS_P2;PMS_P1;PMS_P2;Temp;Humidity;BMP_temperature;BMP_pressure;BME280_temperature;BME280_humidity;BME280_pressure;Samples;Min_cycle;Max_cycle;Signal;HPM_P1;HPM_P2
2021/07/16 04:00:27;;;;;;;12.93;11.80;;;17.40;99.90;;;;;;5941687;23;20485;-61
2021/07/16 04:02:54;;;;;;;12.30;11.30;;;17.40;99.90;;;;;;4974791;28;20501;-60
2021/07/16 04:05:21;;;;;;;12.90;11.70;;;17.50;99.90;;;;;;4974567;28;20454;-61
2021/07/16 04:07:49;;;;;;;12.70;11.67;;;17.60;99.90;;;;;;4974438;28;20973;-61
2021/07/16 04:10:18;;;;;;;12.10;11.00;;;17.50;99.90;;;;;;4974554;28;20903;-61
2021/07/16 04:12:51;;;;;;;11.67;10.63;;;17.60;99.90;;;;;;4974586;28;20465;-60
2021/07/16 04:15:17;;;;;;;11.93;10.93;;;17.50;99.90;;;;;;4976936;28;20530;-60
2021/07/16 04:17:45;;;;;;;10.83;9.93;;;17.50;99.90;;;;;;4978159;28;20465;-61
2021/07/16 04:20:13;;;;;;;11.83;10.93;;;17.50;99.90;;;;;;4978075;28;20458;-61
2021/07/16 04:22:40;;;;;;;10.20;9.40;;;17.60;99.90;;;;;;4978856;28;20455;-60
2021/07/16 04:25:13;;;;;;;10.93;10.10;;;17.60;99.90;;;;;;4978890;28;20513;-61
2021/07/16 04:27:40;;;;;;;11.67;10.60;;;17.60;99.90;;;;;;4977965;28;20449;-60
2021/07/16 04:30:08;;;;;;;11.43;10.53;;;17.60;99.90;;;;;;4977757;28;20482;-60
2021/07/16 04:32:35;;;;;;;11.10;9.43;;;17.60;99.90;;;;;;4980008;28;20458;-61
2021/07/16 04:35:03;;;;;;;10.77;9.97;;;17.60;99.90;;;;;;4985961;28;20478;-61
2021/07/16 04:37:30;;;;;;;9.40;8.70;;;17.50;99.90;;;;;;4987844;28;20458;-61
2021/07/16 04:39:57;;;;;;;9.77;8.97;;;17.50;99.90;;;;;;4980729;28;20447;-61
2021/07/16 04:42:23;;;;;;;8.53;7.93;;;17.50;99.90;;;;;;4977368;28;20478;-61
2021/07/16 04:44:50;;;;;;;9.83;8.00;;;17.50;99.90;;;;;;4977602;28;20463;-61
2021/07/16 04:47:17;;;;;;;8.43;7.83;;;17.60;99.90;;;;;;4977617;28;20505;-60
2021/07/16 04:49:43;;;;;;;9.13;8.40;;;17.60;99.90;;;;;;4977532;28;20485;-60
2021/07/16 04:52:13;;;;;;;8.30;7.70;;;17.60;99.90;;;;;;4977433;28;20554;-61
2021/07/16 04:54:40;;;;;;;10.27;9.03;;;17.60;99.90;;;;;;4977173;28;20469;-61
2021/07/16 04:57:08;;;;;;;10.50;9.70;;;17.60;99.90;;;;;;4977349;28;20884;-61
2021/07/16 04:59:35;;;;;;;10.40;9.50;;;17.50;99.90;;;;;;4977512;28;20854;-61
2021/07/16 05:02:02;;;;;;;10.00;9.00;;;17.50;99.90;;;;;;4977162;28;20486;-61
2021/07/16 05:04:28;;;;;;;12.20;11.30;;;17.50;99.90;;;;;;4977238;28;20510;-60
2021/07/16 05:06:55;;;;;;;13.80;12.60;;;17.60;99.90;;;;;;4977240;28;20458;-60
2021/07/16 05:09:24;;;;;;;14.13;12.83;;;17.70;99.90;;;;;;4977429;28;20474;-61
2021/07/16 05:11:51;;;;;;;15.30;13.90;;;17.70;99.90;;;;;;4978444;28;20511;-60
2021/07/16 05:14:17;;;;;;;14.57;13.27;;;17.80;99.90;;;;;;4980454;28;20458;-60
2021/07/16 05:16:44;;;;;;;14.27;13.07;;;17.80;99.90;;;;;;4981691;28;20526;-61
2021/07/16 05:19:11;;;;;;;13.80;12.50;;;17.90;99.90;;;;;;4981612;28;20462;-61
2021/07/16 05:21:38;;;;;;;13.50;12.40;;;18.00;99.90;;;;;;4981550;28;20481;-61
2021/07/16 05:24:05;;;;;;;14.13;12.93;;;18.00;99.90;;;;;;4977165;28;20455;-62
2021/07/16 05:26:33;;;;;;;14.10;12.93;;;18.10;99.90;;;;;;4976335;28;20462;-62
2021/07/16 05:29:00;;;;;;;14.90;13.70;;;18.10;99.90;;;;;;4977175;28;20474;-60
2021/07/16 05:31:27;;;;;;;13.40;12.30;;;18.20;99.90;;;;;;4977177;28;20481;-62
2021/07/16 05:33:53;;;;;;;15.00;13.77;;;18.30;99.90;;;;;;4976983;28;20514;-61
2021/07/16 05:36:20;;;;;;;13.70;12.50;;;18.10;99.90;;;;;;4977741;28;20465;-61
2021/07/16 05:38:47;;;;;;;15.30;14.00;;;18.20;99.90;;;;;;4978246;28;20458;-60
2021/07/16 05:41:13;;;;;;;13.70;12.60;;;18.30;99.90;;;;;;4979873;28;20474;-60
2021/07/16 05:43:41;;;;;;;12.60;11.60;;;18.40;99.90;;;;;;4978829;28;20946;-60
2021/07/16 05:46:08;;;;;;;13.97;12.73;;;18.60;99.90;;;;;;4979795;28;20455;-60
2021/07/16 05:48:36;;;;;;;12.70;11.67;;;18.60;99.90;;;;;;4977027;28;20466;-61
2021/07/16 05:51:03;;;;;;;14.10;13.10;;;18.70;99.90;;;;;;4976395;28;20490;-62
2021/07/16 05:53:31;;;;;;;13.87;12.70;;;18.60;99.90;;;;;;4976572;28;20550;-61
2021/07/16 05:55:58;;;;;;;13.93;12.83;;;18.50;99.90;;;;;;4976557;28;20451;-63
2021/07/16 05:58:25;;;;;;;13.53;12.43;;;18.60;99.90;;;;;;4976493;28;20458;-61
2021/07/16 06:00:54;;;;;;;14.23;12.80;;;18.60;99.90;;;;;;4976760;28;20509;-62
2021/07/16 06:03:21;;;;;;;13.10;11.87;;;18.50;99.90;;;;;;4976677;28;20451;-62
2021/07/16 06:05:48;;;;;;;13.90;12.90;;;18.60;99.90;;;;;;4976606;28;20864;-61
2021/07/16 06:08:15;;;;;;;13.27;12.27;;;18.70;99.90;;;;;;4976352;28;20509;-60
2021/07/16 06:10:42;;;;;;;11.97;10.97;;;18.80;99.90;;;;;;4976359;28;20569;-61
2021/07/16 06:13:08;;;;;;;12.53;11.33;;;19.00;99.90;;;;;;4976197;28;20471;-60
2021/07/16 06:15:35;;;;;;;12.97;11.87;;;19.00;99.90;;;;;;4976350;28;20466;-60
2021/07/16 06:18:03;;;;;;;12.27;11.27;;;19.10;99.90;;;;;;4976046;28;20513;-61
2021/07/16 06:20:30;;;;;;;13.03;11.50;;;19.40;99.90;;;;;;4981059;28;20491;-62
2021/07/16 06:22:57;;;;;;;13.37;12.07;;;19.40;99.90;;;;;;4991535;28;20461;-62
2021/07/16 06:25:24;;;;;;;11.53;10.43;;;19.40;99.90;;;;;;4990122;28;20462;-61
2021/07/16 06:27:51;;;;;;;10.97;10.07;;;19.40;99.90;;;;;;4985758;28;20454;-60
2021/07/16 06:30:18;;;;;;;10.70;9.90;;;19.40;99.90;;;;;;4984882;28;20562;-62
2021/07/16 06:32:46;;;;;;;10.33;9.43;;;19.40;99.90;;;;;;4975687;28;20458;-61
2021/07/16 06:35:14;;;;;;;9.90;9.07;;;19.50;99.90;;;;;;4975708;28;20538;-62
2021/07/16 06:37:41;;;;;;;9.33;8.73;;;19.60;99.90;;;;;;4974914;28;20454;-61
2021/07/16 06:40:09;;;;;;;9.53;8.93;;;19.80;99.90;;;;;;4975281;28;20450;-61
2021/07/16 06:42:36;;;;;;;11.90;10.87;;;19.70;99.90;;;;;;4975627;28;20465;-61
2021/07/16 06:45:04;;;;;;;10.17;9.47;;;19.80;99.90;;;;;;4975658;28;20461;-61
2021/07/16 06:47:30;;;;;;;11.50;10.70;;;19.80;99.90;;;;;;4975203;28;20959;-61
2021/07/16 06:49:57;;;;;;;12.30;11.30;;;19.90;99.90;;;;;;4975499;28;20478;-60
2021/07/16 06:52:25;;;;;;;11.90;10.90;;;19.90;99.90;;;;;;4975577;28;20474;-61
2021/07/16 06:54:52;;;;;;;11.97;10.97;;;20.00;99.90;;;;;;4975079;28;20459;-61
2021/07/16 06:57:18;;;;;;;12.93;11.70;;;20.20;99.90;;;;;;4975328;28;20462;-61
2021/07/16 06:59:45;;;;;;;11.60;10.80;;;20.20;99.90;;;;;;4975308;28;20505;-61
2021/07/16 07:02:12;;;;;;;13.20;11.90;;;20.30;99.90;;;;;;4978742;28;20985;-61
2021/07/16 07:04:39;;;;;;;12.77;11.73;;;20.30;99.90;;;;;;4975337;28;20455;-61
2021/07/16 07:07:05;;;;;;;11.10;10.30;;;20.20;99.90;;;;;;4975144;28;20455;-60
2021/07/16 07:09:34;;;;;;;12.50;11.60;;;20.20;99.90;;;;;;4974911;28;20985;-61
2021/07/16 07:12:00;;;;;;;13.27;12.27;;;20.30;99.90;;;;;;4974840;28;21002;-61
2021/07/16 07:14:27;;;;;;;14.30;13.20;;;20.40;99.90;;;;;;4974813;28;20967;-61
2021/07/16 07:16:54;;;;;;;12.07;11.27;;;20.50;99.90;;;;;;4975118;28;20466;-62
2021/07/16 07:19:20;;;;;;;12.87;11.90;;;20.90;99.90;;;;;;4975194;28;20506;-60
2021/07/16 07:21:47;;;;;;;11.97;10.97;;;21.30;99.90;;;;;;4975135;28;20483;-61
2021/07/16 07:24:14;;;;;;;11.97;11.13;;;21.20;99.90;;;;;;4974782;28;20799;-60
2021/07/16 07:26:42;;;;;;;12.80;11.57;;;21.00;99.90;;;;;;4974718;28;20458;-61
2021/07/16 07:29:09;;;;;;;13.47;12.17;;;20.90;99.90;;;;;;4975038;28;20816;-60
2021/07/16 07:31:35;;;;;;;13.07;11.90;;;20.70;99.90;;;;;;4975004;28;20522;-61
2021/07/16 07:34:02;;;;;;;13.40;12.30;;;20.60;99.90;;;;;;4975030;28;20455;-60
2021/07/16 07:36:30;;;;;;;12.63;11.70;;;20.40;99.90;;;;;;4975054;28;20443;-61
2021/07/16 07:38:56;;;;;;;13.10;12.13;;;20.20;99.90;;;;;;4974913;28;20466;-60
2021/07/16 07:41:23;;;;;;;13.20;12.27;;;20.20;99.90;;;;;;4975230;28;20482;-61
2021/07/16 07:43:53;;;;;;;12.53;11.43;;;20.20;99.90;;;;;;4974993;28;20458;-61
2021/07/16 07:46:20;;;;;;;12.33;11.43;;;20.00;99.90;;;;;;4975338;28;20458;-61
2021/07/16 07:48:46;;;;;;;13.47;12.23;;;20.00;99.90;;;;;;4975002;28;20481;-61
2021/07/16 07:51:13;;;;;;;13.70;12.60;;;20.00;99.90;;;;;;4978794;28;20486;-61
2021/07/16 07:53:40;;;;;;;14.33;13.33;;;20.00;99.90;;;;;;4978929;28;20454;-61
2021/07/16 07:56:07;;;;;;;13.97;12.97;;;19.90;99.90;;;;;;4978574;28;20462;-60
2021/07/16 07:58:33;;;;;;;13.57;12.37;;;20.00;99.90;;;;;;4978917;28;20458;-60
2021/07/16 08:01:01;;;;;;;12.93;12.03;;;20.20;99.90;;;;;;4978614;28;20483;-60
2021/07/16 08:03:28;;;;;;;11.20;10.40;;;20.30;99.90;;;;;;4986297;28;20454;-60
2021/07/16 08:05:55;;;;;;;11.60;10.80;;;20.50;99.90;;;;;;4994990;28;20458;-60
2021/07/16 08:08:21;;;;;;;11.20;10.40;;;21.00;99.90;;;;;;4996380;28;20462;-60
2021/07/16 08:10:48;;;;;;;13.50;12.10;;;21.50;99.90;;;;;;4996344;28;20514;-61
2021/07/16 08:13:15;;;;;;;9.70;9.07;;;21.80;99.90;;;;;;4987838;28;20809;-61
2021/07/16 08:15:41;;;;;;;7.63;7.10;;;22.60;99.90;;;;;;4978468;28;20451;-61
2021/07/16 08:18:09;;;;;;;8.50;8.00;;;23.80;99.90;;;;;;4978202;28;20465;-61
2021/07/16 08:20:36;;;;;;;7.63;7.13;;;24.80;99.90;;;;;;4978131;28;20477;-62
2021/07/16 08:23:03;;;;;;;8.10;7.57;;;25.50;99.90;;;;;;4978231;28;20462;-61
2021/07/16 08:25:30;;;;;;;6.80;6.40;;;26.30;99.90;;;;;;4978228;28;20458;-61
2021/07/16 08:27:57;;;;;;;8.13;7.53;;;27.10;99.90;;;;;;4977806;28;20465;-61
2021/07/16 08:30:24;;;;;;;6.83;6.33;;;27.50;99.90;;;;;;4977979;28;20481;-61
2021/07/16 08:32:51;;;;;;;6.83;6.47;;;28.20;99.90;;;;;;4978127;28;20455;-61
2021/07/16 08:35:19;;;;;;;7.13;6.67;;;28.70;99.90;;;;;;4978870;28;20458;-61
2021/07/16 08:37:45;;;;;;;8.27;7.50;;;29.30;99.90;;;;;;4977819;28;20458;-61
2021/07/16 08:40:14;;;;;;;8.60;8.00;;;28.60;99.90;;;;;;4977850;28;20486;-62
2021/07/16 08:42:40;;;;;;;9.43;8.83;;;28.00;99.90;;;;;;4978385;28;20454;-62
2021/07/16 08:45:09;;;;;;;8.50;7.90;;;27.60;99.90;;;;;;4979078;28;20454;-61
2021/07/16 08:47:38;;;;;;;8.57;7.97;;;27.20;99.90;;;;;;4980633;28;20459;-62
2021/07/16 08:50:12;;;;;;;9.13;8.40;;;26.30;99.90;;;;;;5000314;28;20474;-61
2021/07/16 08:52:43;;;;;;;9.43;8.83;;;26.10;99.90;;;;;;4984359;28;20435;-61
2021/07/16 08:55:11;;;;;;;12.17;7.07;;;26.10;99.90;;;;;;4978819;28;20919;-62
2021/07/16 08:57:38;;;;;;;5.50;5.20;;;26.70;99.90;;;;;;4977247;28;20465;-62
2021/07/16 09:00:06;;;;;;;6.00;5.60;;;27.50;99.90;;;;;;4977390;28;20527;-62
2021/07/16 09:02:35;;;;;;;5.73;5.43;;;27.50;99.90;;;;;;4975963;28;20895;-62
2021/07/16 09:05:07;;;;;;;6.67;6.17;;;27.40;99.90;;;;;;4977334;28;20455;-61
2021/07/16 09:07:47;;;;;;;6.47;5.97;;;27.40;99.90;;;;;;4977890;28;20466;-61
2021/07/16 09:10:14;;;;;;;5.90;5.50;;;28.10;99.90;;;;;;4976869;28;20458;-61
2021/07/16 09:12:41;;;;;;;4.80;4.50;;;28.70;99.90;;;;;;4977234;28;20454;-61
2021/07/16 09:15:12;;;;;;;6.00;5.27;;;29.10;99.90;;;;;;4977167;28;20458;-60
2021/07/16 09:17:42;;;;;;;5.83;5.40;;;28.90;99.90;;;;;;4977195;28;20459;-61
2021/07/16 09:20:10;;;;;;;4.77;4.47;;;28.50;99.90;;;;;;4977022;28;20994;-61
2021/07/16 09:22:37;;;;;;;7.80;6.00;;;28.90;99.90;;;;;;4976915;28;20514;-61
2021/07/16 09:25:07;;;;;;;4.93;4.63;;;28.80;99.90;;;;;;4977011;28;20458;-61
2021/07/16 09:27:36;;;;;;;5.53;5.23;;;29.20;99.90;;;;;;4977760;28;20455;-61
2021/07/16 09:30:21;;;;;;;5.50;5.20;;;29.50;99.90;;;;;;4976897;28;20526;-61
2021/07/16 09:32:50;;;;;;;4.23;4.03;;;29.10;99.90;;;;;;4977017;28;20443;-61
2021/07/16 09:35:19;;;;;;;4.50;4.30;;;29.00;99.90;;;;;;4976905;28;20510;-60
2021/07/16 09:37:55;;;;;;;3.50;3.30;;;29.40;99.90;;;;;;4976534;28;20945;-61
2021/07/16 09:40:28;;;;;;;3.70;3.50;;;29.40;99.90;;;;;;4976630;28;20459;-61
2021/07/16 09:43:06;;;;;;;4.17;3.97;;;29.50;99.90;;;;;;4977182;28;20485;-63
2021/07/16 09:45:34;;;;;;;3.43;3.20;;;29.40;99.90;;;;;;4976781;28;20439;-61
2021/07/16 09:48:22;;;;;;;3.23;3.13;;;29.70;99.90;;;;;;4976668;28;20478;-60
2021/07/16 09:50:50;;;;;;;3.60;3.50;;;29.40;99.90;;;;;;4976277;28;20974;-61
2021/07/16 09:53:22;;;;;;;3.63;3.33;;;30.10;99.90;;;;;;4976439;28;20454;-61
2021/07/16 09:55:50;;;;;;;3.67;3.47;;;30.20;99.90;;;;;;4976470;28;20442;-61
2021/07/16 09:58:25;;;;;;;3.90;3.70;;;30.00;99.90;;;;;;4976293;28;20966;-60
2021/07/16 10:00:53;;;;;;;4.93;3.70;;;29.00;99.90;;;;;;4976132;28;20541;-60
2021/07/16 10:03:21;;;;;;;3.67;3.37;;;29.80;99.90;;;;;;4977251;28;20458;-61
2021/07/16 10:05:49;;;;;;;3.07;2.87;;;30.40;99.90;;;;;;4976892;28;20458;-61
2021/07/16 10:08:17;;;;;;;2.97;2.83;;;30.40;99.90;;;;;;4976519;28;20465;-61
2021/07/16 10:10:46;;;;;;;2.90;2.80;;;30.90;99.30;;;;;;4976939;28;20516;-62
2021/07/16 10:13:14;;;;;;;2.63;2.53;;;31.60;97.70;;;;;;4976070;28;20543;-61
2021/07/16 10:15:43;;;;;;;2.60;2.40;;;30.70;97.70;;;;;;4976871;28;20788;-61
2021/07/16 10:18:10;;;;;;;7.53;2.80;;;30.30;97.70;;;;;;4976520;28;21013;-63
2021/07/16 10:20:37;;;;;;;2.30;2.20;;;29.80;99.90;;;;;;4976282;28;20471;-63
2021/07/16 10:23:06;;;;;;;2.40;2.30;;;30.00;99.00;;;;;;4977205;28;20577;-61
2021/07/16 10:25:33;;;;;;;4.53;2.27;;;30.40;98.00;;;;;;4976465;28;20458;-62
2021/07/16 10:28:00;;;;;;;4.50;2.30;;;30.30;97.50;;;;;;4976347;28;20866;-61
2021/07/16 10:30:33;;;;;;;8.53;2.60;;;30.00;97.70;;;;;;4976432;28;20458;-63
2021/07/16 10:33:01;;;;;;;2.20;2.00;;;29.60;98.70;;;;;;4976127;28;20446;-61
2021/07/16 10:35:29;;;;;;;2.10;2.00;;;29.10;99.20;;;;;;4976242;28;20486;-62
2021/07/16 10:37:59;;;;;;;2.00;1.90;;;28.20;99.20;;;;;;4976113;28;20497;-62
2021/07/16 10:40:47;;;;;;;1.90;1.80;;;28.00;99.90;;;;;;4976312;28;20443;-61
2021/07/16 10:43:40;;;;;;;1.63;1.63;;;27.60;99.90;;;;;;4971677;28;20461;-61
2021/07/16 10:46:29;;;;;;;3.13;2.23;;;27.00;99.90;;;;;;4975860;28;20815;-62
2021/07/16 10:48:56;;;;;;;3.43;2.60;;;26.50;99.90;;;;;;4975878;28;21015;-63
2021/07/16 10:51:25;;;;;;;3.50;3.30;;;26.00;99.90;;;;;;4975904;28;20874;-62
2021/07/16 10:53:53;;;;;;;3.00;2.60;;;25.70;99.90;;;;;;4976076;28;20482;-63
2021/07/16 10:56:20;;;;;;;3.17;2.97;;;25.40;99.90;;;;;;4975623;28;20838;-61
2021/07/16 10:58:50;;;;;;;3.00;2.80;;;25.20;99.90;;;;;;4975881;28;20506;-61
2021/07/16 11:01:33;;;;;;;7.00;2.13;;;25.00;99.90;;;;;;4975732;28;20478;-60
2021/07/16 11:04:01;;;;;;;2.97;2.77;;;25.10;99.90;;;;;;4975843;28;20450;-61
2021/07/16 11:06:49;;;;;;;2.47;2.37;;;24.80;99.90;;;;;;4975650;28;20455;-61
2021/07/16 11:09:34;;;;;;;2.47;2.37;;;24.80;99.90;;;;;;4975596;28;20482;-62
2021/07/16 11:12:35;;;;;;;2.27;2.20;;;24.70;99.90;;;;;;4975604;28;20494;-62
2021/07/16 11:15:03;;;;;;;2.40;1.90;;;24.70;99.90;;;;;;4915851;29;20449;-61
2021/07/16 11:17:36;;;;;;;3.50;2.20;;;24.60;99.90;;;;;;4915720;29;20981;-62
2021/07/16 11:20:17;;;;;;;2.57;2.47;;;24.40;99.90;;;;;;4946609;28;20939;-61
2021/07/16 11:22:59;;;;;;;2.60;2.50;;;24.50;99.90;;;;;;4975551;28;20435;-61
2021/07/16 11:25:27;;;;;;;3.27;2.20;;;24.40;99.90;;;;;;4975057;28;20491;-61
2021/07/16 11:27:54;;;;;;;2.47;2.37;;;25.00;99.90;;;;;;4975354;28;20454;-61
2021/07/16 11:30:21;;;;;;;2.03;2.03;;;25.80;99.90;;;;;;4975235;28;20469;-61
2021/07/16 11:32:49;;;;;;;2.10;2.00;;;25.60;99.90;;;;;;4975787;28;20553;-60
2021/07/16 11:35:16;;;;;;;2.03;1.93;;;26.00;99.90;;;;;;4976204;28;20463;-62
2021/07/16 11:37:44;;;;;;;1.97;1.87;;;26.50;99.90;;;;;;4978540;28;20458;-62
2021/07/16 11:40:13;;;;;;;2.20;2.10;;;27.00;99.90;;;;;;4982531;28;20469;-63
2021/07/16 11:42:41;;;;;;;2.27;2.17;;;27.60;99.90;;;;;;4977860;28;20457;-62
2021/07/16 11:45:11;;;;;;;2.00;1.90;;;27.80;99.90;;;;;;4976902;28;20855;-61
2021/07/16 11:47:39;;;;;;;2.30;2.20;;;28.00;99.90;;;;;;4976481;28;20828;-62
2021/07/16 11:50:09;;;;;;;2.23;2.13;;;28.50;99.90;;;;;;4976141;28;20964;-61
2021/07/16 11:52:40;;;;;;;2.47;2.37;;;28.40;99.90;;;;;;4976602;28;20481;-64
2021/07/16 11:55:10;;;;;;;1.73;1.73;;;28.00;99.90;;;;;;4975497;28;20455;-61
2021/07/16 11:57:53;;;;;;;2.50;2.40;;;28.00;99.90;;;;;;4975816;28;20458;-61
2021/07/16 12:00:22;;;;;;;2.53;2.40;;;27.70;99.90;;;;;;4974884;28;20442;-61
2021/07/16 12:02:48;;;;;;;2.17;2.07;;;27.80;99.90;;;;;;4975156;28;20438;-61
2021/07/16 12:05:21;;;;;;;3.53;2.93;;;27.90;99.90;;;;;;4974687;28;20910;-61
2021/07/16 12:07:48;;;;;;;2.30;2.20;;;27.70;99.90;;;;;;4974833;28;20914;-61
2021/07/16 12:10:16;;;;;;;2.60;2.40;;;27.40;99.90;;;;;;4975410;28;20861;-62
2021/07/16 12:12:44;;;;;;;2.50;2.30;;;27.30;99.90;;;;;;4976073;28;20530;-62
2021/07/16 12:15:12;;;;;;;2.50;2.40;;;27.30;99.90;;;;;;4975531;28;20534;-62
2021/07/16 12:17:42;;;;;;;2.40;2.30;;;27.20;99.90;;;;;;4975195;28;20969;-62
2021/07/16 12:20:13;;;;;;;2.20;2.00;;;27.10;99.90;;;;;;4975818;28;20434;-62
2021/07/16 12:22:43;;;;;;;2.40;2.30;;;26.80;99.90;;;;;;4975583;28;20497;-62
2021/07/16 12:25:12;;;;;;;2.57;2.37;;;26.70;99.90;;;;;;4975744;28;20454;-61
2021/07/16 12:27:39;;;;;;;2.90;2.63;;;26.60;99.90;;;;;;4975846;28;20461;-61
2021/07/16 12:30:08;;;;;;;3.40;2.43;;;26.50;99.90;;;;;;4975784;28;20455;-62
2021/07/16 12:32:37;;;;;;;3.20;2.93;;;27.00;99.90;;;;;;4976272;28;20526;-61
2021/07/16 12:35:19;;;;;;;2.97;2.77;;;27.50;99.90;;;;;;4976090;28;20474;-61
2021/07/16 12:37:48;;;;;;;2.47;2.37;;;28.30;99.90;;;;;;4977870;28;20461;-62
2021/07/16 12:40:18;;;;;;;2.67;2.57;;;28.10;99.90;;;;;;4978259;28;20958;-63
2021/07/16 12:43:05;;;;;;;2.40;2.30;;;28.10;99.90;;;;;;4978297;28;20489;-62
2021/07/16 12:45:52;;;;;;;2.30;2.10;;;28.10;99.90;;;;;;4977804;28;20450;-62
2021/07/16 12:48:27;;;;;;;2.23;2.13;;;28.00;99.90;;;;;;4977790;28;20910;-61
2021/07/16 12:50:55;;;;;;;2.10;2.00;;;28.20;99.90;;;;;;4977621;28;20481;-61
2021/07/16 12:53:32;;;;;;;2.03;1.77;;;27.90;99.90;;;;;;4978705;28;20459;-61
2021/07/16 12:56:12;;;;;;;2.13;2.03;;;27.80;99.90;;;;;;4978369;28;20906;-61
2021/07/16 12:58:39;;;;;;;2.10;2.00;;;27.40;99.90;;;;;;4978490;28;20449;-61
2021/07/16 13:01:06;;;;;;;2.00;2.00;;;26.90;99.90;;;;;;4977750;28;20989;-62
2021/07/16 13:03:39;;;;;;;4.03;2.23;;;26.70;99.90;;;;;;4978284;28;20457;-62
2021/07/16 13:06:17;;;;;;;2.37;2.27;;;26.70;99.90;;;;;;4977939;28;20489;-61
2021/07/16 13:09:22;;;;;;;2.20;2.10;;;27.00;99.90;;;;;;4978006;28;20435;-61
2021/07/16 13:12:03;;;;;;;2.20;2.10;;;27.20;99.90;;;;;;4978227;28;20487;-61
2021/07/16 13:14:32;;;;;;;2.20;2.10;;;27.40;99.90;;;;;;4978489;28;20529;-61
2021/07/16 13:17:21;;;;;;;3.67;1.93;;;27.50;99.90;;;;;;4978613;28;20465;-62
2021/07/16 13:19:48;;;;;;;1.57;1.50;;;27.50;99.90;;;;;;4978235;28;20439;-62
2021/07/16 13:22:15;;;;;;;1.97;1.87;;;27.50;99.90;;;;;;4977710;28;20471;-62
2021/07/16 13:24:43;;;;;;;1.87;1.73;;;27.40;99.90;;;;;;4979428;28;20491;-61
2021/07/16 13:27:10;;;;;;;2.20;1.90;;;27.30;99.90;;;;;;4977499;28;20493;-61
2021/07/16 13:29:36;;;;;;;3.43;1.70;;;27.20;99.90;;;;;;4977641;28;20455;-61
2021/07/16 13:32:04;;;;;;;2.00;1.67;;;27.20;99.90;;;;;;4987463;28;20483;-61
2021/07/16 13:34:31;;;;;;;1.60;1.60;;;27.20;99.90;;;;;;4982263;28;20513;-62
2021/07/16 13:36:57;;;;;;;2.17;2.00;;;27.20;99.90;;;;;;4977009;28;20475;-61
2021/07/16 13:39:24;;;;;;;1.80;1.70;;;27.00;99.90;;;;;;4976968;28;20458;-61
2021/07/16 13:41:52;;;;;;;3.00;2.67;;;27.00;99.90;;;;;;4976625;28;20477;-62
2021/07/16 13:44:19;;;;;;;1.50;1.50;;;26.80;99.90;;;;;;4976933;28;20505;-62
2021/07/16 13:46:45;;;;;;;2.07;1.97;;;26.90;99.90;;;;;;4976469;28;20481;-62
2021/07/16 13:49:12;;;;;;;1.70;1.60;;;26.80;99.90;;;;;;4976632;28;20470;-61
2021/07/16 13:51:39;;;;;;;1.83;1.83;;;26.50;99.90;;;;;;4976590;28;20485;-61
2021/07/16 13:54:06;;;;;;;2.40;2.17;;;26.40;99.90;;;;;;4976489;28;20812;-61
2021/07/16 13:56:33;;;;;;;1.53;1.53;;;26.30;99.90;;;;;;4976490;28;20960;-62
2021/07/16 13:59:01;;;;;;;2.30;2.20;;;26.30;99.90;;;;;;4976348;28;20517;-61
2021/07/16 14:01:28;;;;;;;2.03;1.80;;;26.50;99.90;;;;;;4976145;28;20487;-61
2021/07/16 14:03:54;;;;;;;1.93;1.93;;;26.50;99.90;;;;;;4977019;28;20462;-61
2021/07/16 14:06:21;;;;;;;3.03;1.73;;;26.50;99.90;;;;;;4977126;28;20513;-62
2021/07/16 14:08:48;;;;;;;1.50;1.50;;;26.40;99.90;;;;;;4976394;28;20458;-61
2021/07/16 14:11:14;;;;;;;1.57;1.47;;;26.40;99.90;;;;;;4976249;28;20479;-61
2021/07/16 14:13:41;;;;;;;1.90;1.80;;;26.30;99.90;;;;;;4975835;28;21045;-61
2021/07/16 14:16:10;;;;;;;1.70;1.70;;;26.40;99.90;;;;;;4976329;28;20445;-61
2021/07/16 14:18:37;;;;;;;1.70;1.60;;;26.40;99.90;;;;;;4976062;28;20525;-61
2021/07/16 14:21:04;;;;;;;1.60;1.60;;;26.50;99.90;;;;;;4976017;28;20534;-62
2021/07/16 14:23:31;;;;;;;2.83;2.00;;;26.60;99.90;;;;;;4976027;28;20451;-62
2021/07/16 14:25:57;;;;;;;3.03;2.07;;;26.50;99.90;;;;;;4976224;28;20459;-62
2021/07/16 14:28:24;;;;;;;2.07;1.80;;;26.50;99.90;;;;;;4975992;28;20822;-61
2021/07/16 14:30:51;;;;;;;2.10;1.97;;;26.40;99.90;;;;;;4975909;28;20474;-61
2021/07/16 14:33:20;;;;;;;2.00;1.90;;;26.20;99.90;;;;;;4975865;28;20517;-61
2021/07/16 14:35:47;;;;;;;1.90;1.80;;;26.20;99.90;;;;;;4975913;28;20505;-61
2021/07/16 14:38:14;;;;;;;1.90;1.80;;;26.10;99.90;;;;;;4975429;28;20465;-61
2021/07/16 14:40:41;;;;;;;2.07;1.90;;;26.10;99.90;;;;;;4975632;28;20478;-61
2021/07/16 14:43:08;;;;;;;1.97;1.77;;;26.20;99.90;;;;;;4975700;28;20454;-60
2021/07/16 14:45:35;;;;;;;1.97;1.80;;;26.30;99.90;;;;;;4975774;28;20801;-61
2021/07/16 14:48:02;;;;;;;2.00;1.90;;;26.40;99.90;;;;;;4975718;28;20454;-61
2021/07/16 14:50:30;;;;;;;2.23;1.80;;;26.50;99.90;;;;;;4975696;28;20463;-61
2021/07/16 14:52:57;;;;;;;2.13;2.07;;;26.50;99.90;;;;;;4975220;28;21008;-61
2021/07/16 14:55:24;;;;;;;1.70;1.60;;;26.60;99.90;;;;;;4975634;28;20454;-60
2021/07/16 14:57:51;;;;;;;2.07;1.93;;;26.70;99.90;;;;;;4975589;28;20459;-61
2021/07/16 15:00:19;;;;;;;2.07;2.00;;;26.70;99.90;;;;;;4974687;28;20465;-62
2021/07/16 15:02:45;;;;;;;1.80;1.80;;;26.50;99.90;;;;;;4975415;28;20493;-61
2021/07/16 15:05:12;;;;;;;1.67;1.67;;;26.50;99.90;;;;;;4975336;28;20945;-62
2021/07/16 15:07:40;;;;;;;1.60;1.60;;;26.40;99.90;;;;;;4975419;28;20938;-61
2021/07/16 15:10:09;;;;;;;1.80;1.70;;;26.30;99.90;;;;;;4975305;28;20458;-61
2021/07/16 15:12:36;;;;;;;1.57;1.57;;;26.10;99.90;;;;;;4975085;28;20977;-62
2021/07/16 15:15:04;;;;;;;1.70;1.70;;;26.00;99.90;;;;;;4975539;28;20446;-61
2021/07/16 15:17:31;;;;;;;1.73;1.57;;;26.10;99.90;;;;;;4975332;28;20451;-62
2021/07/16 15:19:58;;;;;;;2.30;2.20;;;26.00;99.90;;;;;;4975191;28;20450;-62
2021/07/16 15:22:24;;;;;;;2.33;2.23;;;26.20;99.90;;;;;;4975673;28;20466;-61
2021/07/16 15:24:52;;;;;;;2.10;2.07;;;26.60;99.90;;;;;;4975688;28;20439;-61
2021/07/16 15:27:19;;;;;;;1.37;1.27;;;27.00;99.90;;;;;;4975204;28;20455;-62
2021/07/16 15:29:46;;;;;;;1.50;1.50;;;27.20;99.90;;;;;;4975066;28;20454;-61
2021/07/16 15:32:13;;;;;;;1.80;1.80;;;27.10;99.90;;;;;;4975068;28;20486;-60
2021/07/16 15:34:39;;;;;;;2.50;1.70;;;27.00;99.90;;;;;;4975317;28;20513;-61
2021/07/16 15:37:06;;;;;;;1.87;1.77;;;27.10;99.90;;;;;;4975348;28;20459;-61
2021/07/16 15:39:33;;;;;;;2.40;1.70;;;27.00;99.90;;;;;;4975350;28;20466;-61
2021/07/16 15:42:01;;;;;;;2.13;2.03;;;26.90;99.90;;;;;;4975347;28;20477;-61
2021/07/16 15:44:29;;;;;;;4.63;2.07;;;26.80;99.90;;;;;;4975131;28;20865;-60
2021/07/16 15:46:56;;;;;;;1.80;1.70;;;26.70;99.90;;;;;;4975411;28;20458;-61
2021/07/16 15:49:23;;;;;;;6.23;2.10;;;26.70;99.90;;;;;;4975245;28;20462;-61
2021/07/16 15:51:50;;;;;;;1.70;1.70;;;26.60;99.90;;;;;;4975751;28;20482;-62
2021/07/16 15:54:16;;;;;;;3.47;1.70;;;26.60;99.90;;;;;;4979142;28;20455;-61
2021/07/16 15:56:44;;;;;;;1.60;1.60;;;26.50;99.90;;;;;;4987693;28;20465;-62
2021/07/16 15:59:12;;;;;;;1.97;1.87;;;26.50;99.90;;;;;;4981156;28;20586;-62
2021/07/16 16:01:39;;;;;;;1.63;1.53;;;26.50;99.90;;;;;;4976624;28;20486;-62
2021/07/16 16:04:05;;;;;;;1.70;1.70;;;26.70;99.90;;;;;;4976419;28;20477;-62
2021/07/16 16:06:33;;;;;;;1.60;1.60;;;27.00;99.90;;;;;;4975185;28;20450;-61
2021/07/16 16:08:59;;;;;;;1.80;1.70;;;27.20;99.90;;;;;;4974773;28;20450;-62
2021/07/16 16:11:26;;;;;;;1.77;1.77;;;27.30;99.90;;;;;;4976873;28;20985;-61
2021/07/16 16:13:53;;;;;;;1.93;1.60;;;27.40;99.90;;;;;;4978747;28;20489;-61
2021/07/16 16:16:21;;;;;;;1.53;1.53;;;27.30;99.90;;;;;;4978571;28;20458;-61
2021/07/16 16:18:47;;;;;;;1.80;1.70;;;27.30;99.90;;;;;;4978445;28;20454;-61
2021/07/16 16:21:17;;;;;;;1.53;1.43;;;27.30;99.90;;;;;;4978096;28;21004;-61
2021/07/16 16:23:44;;;;;;;1.60;1.60;;;27.30;99.90;;;;;;4978390;28;20533;-61
2021/07/16 16:26:10;;;;;;;1.90;1.80;;;27.30;99.90;;;;;;4978735;28;20466;-61
2021/07/16 16:28:37;;;;;;;1.70;1.67;;;27.20;99.90;;;;;;4978275;28;20454;-62
2021/07/16 16:31:04;;;;;;;1.70;1.60;;;27.30;99.90;;;;;;4978080;28;20479;-61
2021/07/16 16:33:35;;;;;;;1.87;1.80;;;27.40;99.90;;;;;;4979194;28;20485;-60
2021/07/16 16:36:02;;;;;;;1.37;1.37;;;27.50;99.90;;;;;;4978379;28;20534;-61
2021/07/16 16:38:29;;;;;;;1.80;1.70;;;27.50;99.90;;;;;;4978094;28;20508;-61
2021/07/16 16:40:56;;;;;;;1.17;1.17;;;27.40;99.90;;;;;;4978092;28;20985;-61
2021/07/16 16:43:22;;;;;;;1.10;1.10;;;27.30;99.90;;;;;;4978358;28;20530;-62
2021/07/16 16:45:49;;;;;;;1.43;1.33;;;27.30;99.90;;;;;;4981532;28;20469;-61
2021/07/16 16:48:16;;;;;;;1.63;1.53;;;27.30;99.90;;;;;;4988261;28;20463;-62